Pagrindinis puslapis
METAR-TAF:

METAR-TAF

Oro uostai :

Alžyras, Alžyras

platuma: 36-43N, ilguma: 003-15E, Aukštis: 25 m

Dabartinis oras

Ataskaita buvo paskelbta 14 minutes, ne 08:00 UTC
Vėjas 4 kt iš Pietų/Pietryčių, svyruoja nuo Pietryčių ir Pietvakarių
Temperatūra 15°C
Drėgmė 59%
Slėgis 1022 hPa
Matomumas 10 km arba daugiau
Mažai debesys ne aukštis 2000 ft

METAR: DAAG 060800Z 16004KT 140V230 9999 FEW020 15/07 Q1022

Laikas: 09:14 (08:14 UTC)

Prognozė

Ataskaita buvo paskelbta 3 valandos ir 14 minutes, ne 05:00 UTC
Prognozė galioja nuo 06 metu 06 UTC su 07 metu 06 UTC
Vėjas 8 kt iš Pietų
Matomumas 10 km arba daugiau
Mažai debesys ne aukštis 2000 ft
Išsisklaidę debesys ne aukštis 20000 ft

TAF: DAAG 060500Z 0606/0706 18008KT 9999 FEW020 SCT200

Orai ataskaitas ir orų prognozės (METAR, TAF).

turimą stotys yra geltonos ir raudonos taškus žemėlapyje.

Perkelti pele per norėdami pamatyti stoties vardą.

Tada spustelėkite, norėdami matyti oro stebėjimo ir prognozės.

Norėdami pakeisti žemėlapį: spustelėkite ant žalios mygtukų su juodo kryžiaus žemyn,; žalią mygtuką su brūkšneliu, jei norite nutolinti; arba žalių rodyklių gretimoms žemėlapius.


METAR-TAF: